sensor_id;sensor_type;location;lat;lon;timestamp;temperature;humidity
7214;DHT22;3648;50.614;13.830;2022-09-16T00:00:59;12.90;1.00
7214;DHT22;3648;50.614;13.830;2022-09-16T00:03:26;12.90;1.00
7214;DHT22;3648;50.614;13.830;2022-09-16T00:05:53;12.80;1.00
7214;DHT22;3648;50.614;13.830;2022-09-16T00:08:21;12.80;1.00
7214;DHT22;3648;50.614;13.830;2022-09-16T00:10:50;12.80;1.00
7214;DHT22;3648;50.614;13.830;2022-09-16T00:13:17;12.70;1.00
7214;DHT22;3648;50.614;13.830;2022-09-16T00:15:48;12.70;1.00
7214;DHT22;3648;50.614;13.830;2022-09-16T00:18:15;12.70;1.00
7214;DHT22;3648;50.614;13.830;2022-09-16T00:20:44;12.60;1.00
7214;DHT22;3648;50.614;13.830;2022-09-16T00:23:11;12.60;1.00
7214;DHT22;3648;50.614;13.830;2022-09-16T00:25:38;12.60;1.00
7214;DHT22;3648;50.614;13.830;2022-09-16T00:28:06;12.60;1.00
7214;DHT22;3648;50.614;13.830;2022-09-16T00:30:33;12.50;1.00
7214;DHT22;3648;50.614;13.830;2022-09-16T00:33:01;12.50;1.00
7214;DHT22;3648;50.614;13.830;2022-09-16T00:35:28;12.50;1.00
7214;DHT22;3648;50.614;13.830;2022-09-16T00:37:55;12.50;1.00
7214;DHT22;3648;50.614;13.830;2022-09-16T00:40:22;12.50;1.00
7214;DHT22;3648;50.614;13.830;2022-09-16T00:42:49;12.50;1.00
7214;DHT22;3648;50.614;13.830;2022-09-16T00:45:19;12.50;1.00
7214;DHT22;3648;50.614;13.830;2022-09-16T00:47:49;12.50;1.00
7214;DHT22;3648;50.614;13.830;2022-09-16T00:50:21;12.50;1.00
7214;DHT22;3648;50.614;13.830;2022-09-16T00:52:49;12.50;1.00
7214;DHT22;3648;50.614;13.830;2022-09-16T00:55:21;12.50;1.00
7214;DHT22;3648;50.614;13.830;2022-09-16T00:57:50;12.40;1.00
7214;DHT22;3648;50.614;13.830;2022-09-16T01:00:19;12.40;1.00
7214;DHT22;3648;50.614;13.830;2022-09-16T01:02:46;12.40;1.00
7214;DHT22;3648;50.614;13.830;2022-09-16T01:05:18;12.40;1.00
7214;DHT22;3648;50.614;13.830;2022-09-16T01:07:47;12.40;1.00
7214;DHT22;3648;50.614;13.830;2022-09-16T01:10:17;12.30;1.00
7214;DHT22;3648;50.614;13.830;2022-09-16T01:12:49;12.30;1.00
7214;DHT22;3648;50.614;13.830;2022-09-16T01:15:25;12.30;1.00
7214;DHT22;3648;50.614;13.830;2022-09-16T01:18:05;12.20;1.00
7214;DHT22;3648;50.614;13.830;2022-09-16T01:29:36;12.20;1.00
7214;DHT22;3648;50.614;13.830;2022-09-16T01:32:10;12.20;1.00
7214;DHT22;3648;50.614;13.830;2022-09-16T01:34:44;12.20;1.00
7214;DHT22;3648;50.614;13.830;2022-09-16T01:37:21;12.20;1.00
7214;DHT22;3648;50.614;13.830;2022-09-16T01:39:58;12.10;1.00
7214;DHT22;3648;50.614;13.830;2022-09-16T01:42:37;12.10;1.00
7214;DHT22;3648;50.614;13.830;2022-09-16T01:45:10;12.10;1.00
7214;DHT22;3648;50.614;13.830;2022-09-16T01:47:49;12.10;1.00
7214;DHT22;3648;50.614;13.830;2022-09-16T01:50:23;12.10;1.00
7214;DHT22;3648;50.614;13.830;2022-09-16T01:52:57;12.10;1.00
7214;DHT22;3648;50.614;13.830;2022-09-16T01:55:29;12.10;1.00
7214;DHT22;3648;50.614;13.830;2022-09-16T01:58:00;12.10;1.00
7214;DHT22;3648;50.614;13.830;2022-09-16T02:00:29;12.10;1.00
7214;DHT22;3648;50.614;13.830;2022-09-16T02:03:03;12.10;1.00
7214;DHT22;3648;50.614;13.830;2022-09-16T02:05:35;12.10;1.00
7214;DHT22;3648;50.614;13.830;2022-09-16T02:08:05;12.10;1.00
7214;DHT22;3648;50.614;13.830;2022-09-16T02:10:39;12.10;1.00
7214;DHT22;3648;50.614;13.830;2022-09-16T02:13:12;12.10;1.00
7214;DHT22;3648;50.614;13.830;2022-09-16T02:15:41;12.10;1.00
7214;DHT22;3648;50.614;13.830;2022-09-16T02:18:13;12.10;1.00
7214;DHT22;3648;50.614;13.830;2022-09-16T02:20:46;12.10;1.00
7214;DHT22;3648;50.614;13.830;2022-09-16T02:23:19;12.10;1.00
7214;DHT22;3648;50.614;13.830;2022-09-16T02:25:47;12.10;1.00
7214;DHT22;3648;50.614;13.830;2022-09-16T02:28:19;12.20;1.00
7214;DHT22;3648;50.614;13.830;2022-09-16T02:30:51;12.20;1.00
7214;DHT22;3648;50.614;13.830;2022-09-16T02:33:22;12.20;1.00
7214;DHT22;3648;50.614;13.830;2022-09-16T02:35:52;12.20;1.00
7214;DHT22;3648;50.614;13.830;2022-09-16T02:38:22;12.20;1.00
7214;DHT22;3648;50.614;13.830;2022-09-16T02:40:53;12.20;1.00
7214;DHT22;3648;50.614;13.830;2022-09-16T02:43:21;12.20;1.00
7214;DHT22;3648;50.614;13.830;2022-09-16T02:45:53;12.20;1.00
7214;DHT22;3648;50.614;13.830;2022-09-16T02:48:31;12.20;1.00
7214;DHT22;3648;50.614;13.830;2022-09-16T02:51:04;12.20;1.00
7214;DHT22;3648;50.614;13.830;2022-09-16T02:53:42;12.30;1.00
7214;DHT22;3648;50.614;13.830;2022-09-16T02:56:17;12.30;1.00
7214;DHT22;3648;50.614;13.830;2022-09-16T02:58:45;12.30;1.00
7214;DHT22;3648;50.614;13.830;2022-09-16T03:01:13;12.30;1.00
7214;DHT22;3648;50.614;13.830;2022-09-16T03:03:41;12.30;1.00
7214;DHT22;3648;50.614;13.830;2022-09-16T03:06:20;12.30;1.00
7214;DHT22;3648;50.614;13.830;2022-09-16T03:08:48;12.30;1.00
7214;DHT22;3648;50.614;13.830;2022-09-16T03:14:36;12.30;1.00
7214;DHT22;3648;50.614;13.830;2022-09-16T03:17:14;12.40;1.00
7214;DHT22;3648;50.614;13.830;2022-09-16T03:19:52;12.40;1.00
7214;DHT22;3648;50.614;13.830;2022-09-16T03:22:33;12.30;1.00
7214;DHT22;3648;50.614;13.830;2022-09-16T03:25:09;12.30;1.00
7214;DHT22;3648;50.614;13.830;2022-09-16T03:27:43;12.30;1.00
7214;DHT22;3648;50.614;13.830;2022-09-16T03:30:11;12.30;1.00
7214;DHT22;3648;50.614;13.830;2022-09-16T03:32:43;12.30;1.00
7214;DHT22;3648;50.614;13.830;2022-09-16T03:35:14;12.30;1.00
7214;DHT22;3648;50.614;13.830;2022-09-16T03:37:44;12.30;1.00
7214;DHT22;3648;50.614;13.830;2022-09-16T03:40:13;12.20;1.00
7214;DHT22;3648;50.614;13.830;2022-09-16T03:42:42;12.30;1.00
7214;DHT22;3648;50.614;13.830;2022-09-16T03:45:13;12.20;1.00
7214;DHT22;3648;50.614;13.830;2022-09-16T03:47:40;12.20;1.00
7214;DHT22;3648;50.614;13.830;2022-09-16T03:50:08;12.20;1.00
7214;DHT22;3648;50.614;13.830;2022-09-16T03:52:37;12.20;1.00
7214;DHT22;3648;50.614;13.830;2022-09-16T03:55:04;12.20;1.00
7214;DHT22;3648;50.614;13.830;2022-09-16T03:57:32;12.20;1.00
7214;DHT22;3648;50.614;13.830;2022-09-16T03:59:59;12.20;1.00
7214;DHT22;3648;50.614;13.830;2022-09-16T04:02:26;12.20;1.00
7214;DHT22;3648;50.614;13.830;2022-09-16T04:04:53;12.20;1.00
7214;DHT22;3648;50.614;13.830;2022-09-16T04:07:20;12.20;1.00
7214;DHT22;3648;50.614;13.830;2022-09-16T04:09:49;12.20;1.00
7214;DHT22;3648;50.614;13.830;2022-09-16T04:12:16;12.20;1.00
7214;DHT22;3648;50.614;13.830;2022-09-16T04:14:43;12.20;1.00
7214;DHT22;3648;50.614;13.830;2022-09-16T04:17:10;12.20;1.00
7214;DHT22;3648;50.614;13.830;2022-09-16T04:19:37;12.20;1.00
7214;DHT22;3648;50.614;13.830;2022-09-16T04:22:04;12.20;1.00
7214;DHT22;3648;50.614;13.830;2022-09-16T04:24:31;12.30;1.00
7214;DHT22;3648;50.614;13.830;2022-09-16T04:27:00;12.20;1.00
7214;DHT22;3648;50.614;13.830;2022-09-16T04:29:27;12.30;1.00
7214;DHT22;3648;50.614;13.830;2022-09-16T04:31:54;12.20;1.00
7214;DHT22;3648;50.614;13.830;2022-09-16T04:34:21;12.20;1.00
7214;DHT22;3648;50.614;13.830;2022-09-16T04:36:48;12.10;1.00
7214;DHT22;3648;50.614;13.830;2022-09-16T04:39:16;12.10;1.00
7214;DHT22;3648;50.614;13.830;2022-09-16T04:41:43;12.00;1.00
7214;DHT22;3648;50.614;13.830;2022-09-16T04:44:11;12.00;1.00
7214;DHT22;3648;50.614;13.830;2022-09-16T04:46:39;12.00;1.00
7214;DHT22;3648;50.614;13.830;2022-09-16T04:49:06;12.00;1.00
7214;DHT22;3648;50.614;13.830;2022-09-16T04:51:33;12.00;1.00
7214;DHT22;3648;50.614;13.830;2022-09-16T04:54:00;12.00;1.00
7214;DHT22;3648;50.614;13.830;2022-09-16T04:56:29;12.00;1.00
7214;DHT22;3648;50.614;13.830;2022-09-16T04:58:59;12.10;1.00
7214;DHT22;3648;50.614;13.830;2022-09-16T05:01:30;12.00;1.00
7214;DHT22;3648;50.614;13.830;2022-09-16T05:04:00;12.00;1.00
7214;DHT22;3648;50.614;13.830;2022-09-16T05:06:31;12.10;1.00
7214;DHT22;3648;50.614;13.830;2022-09-16T05:09:00;12.10;1.00
7214;DHT22;3648;50.614;13.830;2022-09-16T05:11:28;12.10;1.00
7214;DHT22;3648;50.614;13.830;2022-09-16T05:13:58;12.00;1.00
7214;DHT22;3648;50.614;13.830;2022-09-16T05:16:25;12.00;1.00
7214;DHT22;3648;50.614;13.830;2022-09-16T05:18:55;12.00;1.00
7214;DHT22;3648;50.614;13.830;2022-09-16T05:21:24;12.00;1.00
7214;DHT22;3648;50.614;13.830;2022-09-16T05:23:52;12.10;1.00
7214;DHT22;3648;50.614;13.830;2022-09-16T05:26:21;12.10;1.00
7214;DHT22;3648;50.614;13.830;2022-09-16T05:28:49;12.10;1.00
7214;DHT22;3648;50.614;13.830;2022-09-16T05:31:19;12.10;1.00
7214;DHT22;3648;50.614;13.830;2022-09-16T05:33:52;12.10;1.00
7214;DHT22;3648;50.614;13.830;2022-09-16T05:36:21;12.20;1.00
7214;DHT22;3648;50.614;13.830;2022-09-16T05:38:48;12.20;1.00
7214;DHT22;3648;50.614;13.830;2022-09-16T05:41:15;12.20;1.00
7214;DHT22;3648;50.614;13.830;2022-09-16T05:43:43;12.20;1.00
7214;DHT22;3648;50.614;13.830;2022-09-16T05:46:16;12.20;1.00
7214;DHT22;3648;50.614;13.830;2022-09-16T05:48:43;12.30;1.00
7214;DHT22;3648;50.614;13.830;2022-09-16T05:51:13;12.30;1.00
7214;DHT22;3648;50.614;13.830;2022-09-16T05:53:43;12.30;1.00
7214;DHT22;3648;50.614;13.830;2022-09-16T05:56:12;12.30;1.00
7214;DHT22;3648;50.614;13.830;2022-09-16T05:58:40;12.40;1.00
7214;DHT22;3648;50.614;13.830;2022-09-16T06:01:10;12.40;1.00
7214;DHT22;3648;50.614;13.830;2022-09-16T06:03:39;12.50;1.00
7214;DHT22;3648;50.614;13.830;2022-09-16T06:06:11;12.50;1.00
7214;DHT22;3648;50.614;13.830;2022-09-16T06:08:39;12.50;1.00
7214;DHT22;3648;50.614;13.830;2022-09-16T06:11:09;12.60;1.00
7214;DHT22;3648;50.614;13.830;2022-09-16T06:13:37;12.60;1.00
7214;DHT22;3648;50.614;13.830;2022-09-16T06:16:07;12.70;1.00
7214;DHT22;3648;50.614;13.830;2022-09-16T06:18:34;12.70;1.00
7214;DHT22;3648;50.614;13.830;2022-09-16T06:21:06;12.70;1.00
7214;DHT22;3648;50.614;13.830;2022-09-16T06:23:33;12.80;1.00
7214;DHT22;3648;50.614;13.830;2022-09-16T06:26:03;12.80;1.00
7214;DHT22;3648;50.614;13.830;2022-09-16T06:28:32;12.80;1.00
7214;DHT22;3648;50.614;13.830;2022-09-16T06:31:01;12.80;1.00
7214;DHT22;3648;50.614;13.830;2022-09-16T06:33:29;12.80;1.00
7214;DHT22;3648;50.614;13.830;2022-09-16T06:35:56;12.90;1.00
7214;DHT22;3648;50.614;13.830;2022-09-16T06:38:23;12.90;1.00
7214;DHT22;3648;50.614;13.830;2022-09-16T06:40:50;12.90;1.00
7214;DHT22;3648;50.614;13.830;2022-09-16T06:43:18;12.90;1.00
7214;DHT22;3648;50.614;13.830;2022-09-16T06:45:46;13.00;1.00
7214;DHT22;3648;50.614;13.830;2022-09-16T06:48:14;13.00;1.00
7214;DHT22;3648;50.614;13.830;2022-09-16T06:50:41;13.00;1.00
7214;DHT22;3648;50.614;13.830;2022-09-16T06:53:08;13.00;1.00
7214;DHT22;3648;50.614;13.830;2022-09-16T06:55:35;13.10;1.00
7214;DHT22;3648;50.614;13.830;2022-09-16T06:58:02;13.10;1.00
7214;DHT22;3648;50.614;13.830;2022-09-16T07:00:29;13.20;1.00
7214;DHT22;3648;50.614;13.830;2022-09-16T07:02:57;13.30;1.00
7214;DHT22;3648;50.614;13.830;2022-09-16T07:05:24;13.30;1.00
7214;DHT22;3648;50.614;13.830;2022-09-16T07:07:51;13.40;1.00
7214;DHT22;3648;50.614;13.830;2022-09-16T07:10:19;13.40;1.00
7214;DHT22;3648;50.614;13.830;2022-09-16T07:12:48;13.40;1.00
7214;DHT22;3648;50.614;13.830;2022-09-16T07:15:15;13.40;1.00
7214;DHT22;3648;50.614;13.830;2022-09-16T07:17:42;13.40;1.00
7214;DHT22;3648;50.614;13.830;2022-09-16T07:20:11;13.40;1.00
7214;DHT22;3648;50.614;13.830;2022-09-16T07:22:38;13.50;1.00
7214;DHT22;3648;50.614;13.830;2022-09-16T07:25:06;13.50;1.00
7214;DHT22;3648;50.614;13.830;2022-09-16T07:27:33;13.60;1.00
7214;DHT22;3648;50.614;13.830;2022-09-16T07:30:00;13.50;1.00
7214;DHT22;3648;50.614;13.830;2022-09-16T07:32:27;13.50;1.00
7214;DHT22;3648;50.614;13.830;2022-09-16T07:34:55;13.50;1.00
7214;DHT22;3648;50.614;13.830;2022-09-16T07:37:24;13.60;1.00
7214;DHT22;3648;50.614;13.830;2022-09-16T07:39:51;13.60;1.00
7214;DHT22;3648;50.614;13.830;2022-09-16T07:42:18;13.70;1.00
7214;DHT22;3648;50.614;13.830;2022-09-16T07:44:45;13.80;1.00
7214;DHT22;3648;50.614;13.830;2022-09-16T07:47:12;14.00;1.00
7214;DHT22;3648;50.614;13.830;2022-09-16T07:49:39;14.20;1.00
7214;DHT22;3648;50.614;13.830;2022-09-16T07:52:07;14.40;1.00
7214;DHT22;3648;50.614;13.830;2022-09-16T07:54:35;14.60;1.00
7214;DHT22;3648;50.614;13.830;2022-09-16T07:57:02;14.60;1.00
7214;DHT22;3648;50.614;13.830;2022-09-16T07:59:30;14.60;1.00
7214;DHT22;3648;50.614;13.830;2022-09-16T08:01:57;14.70;1.00
7214;DHT22;3648;50.614;13.830;2022-09-16T08:04:26;14.70;1.00
7214;DHT22;3648;50.614;13.830;2022-09-16T08:06:53;14.70;1.00
7214;DHT22;3648;50.614;13.830;2022-09-16T08:09:21;14.70;1.00
7214;DHT22;3648;50.614;13.830;2022-09-16T08:11:49;14.70;1.00
7214;DHT22;3648;50.614;13.830;2022-09-16T08:14:16;14.80;1.00
7214;DHT22;3648;50.614;13.830;2022-09-16T08:16:43;14.90;1.00
7214;DHT22;3648;50.614;13.830;2022-09-16T08:19:11;15.00;1.00
7214;DHT22;3648;50.614;13.830;2022-09-16T08:21:38;15.20;1.00
7214;DHT22;3648;50.614;13.830;2022-09-16T08:24:05;15.20;1.00
7214;DHT22;3648;50.614;13.830;2022-09-16T08:26:32;15.20;1.00
7214;DHT22;3648;50.614;13.830;2022-09-16T08:29:01;15.30;1.00
7214;DHT22;3648;50.614;13.830;2022-09-16T08:31:28;15.40;1.00
7214;DHT22;3648;50.614;13.830;2022-09-16T08:33:55;15.50;1.00
7214;DHT22;3648;50.614;13.830;2022-09-16T08:36:26;15.70;1.00
7214;DHT22;3648;50.614;13.830;2022-09-16T08:38:54;15.90;1.00
7214;DHT22;3648;50.614;13.830;2022-09-16T08:41:38;16.10;1.00
7214;DHT22;3648;50.614;13.830;2022-09-16T08:44:16;16.20;1.00
7214;DHT22;3648;50.614;13.830;2022-09-16T08:46:50;16.40;1.00
7214;DHT22;3648;50.614;13.830;2022-09-16T08:49:29;16.50;1.00
7214;DHT22;3648;50.614;13.830;2022-09-16T08:51:59;16.40;1.00
7214;DHT22;3648;50.614;13.830;2022-09-16T08:54:31;16.40;1.00
7214;DHT22;3648;50.614;13.830;2022-09-16T08:57:02;16.20;1.00
7214;DHT22;3648;50.614;13.830;2022-09-16T08:59:35;16.30;1.00
7214;DHT22;3648;50.614;13.830;2022-09-16T09:05:05;16.10;1.00
7214;DHT22;3648;50.614;13.830;2022-09-16T09:07:46;16.10;1.00
7214;DHT22;3648;50.614;13.830;2022-09-16T09:10:21;16.20;1.00
7214;DHT22;3648;50.614;13.830;2022-09-16T09:12:55;16.30;1.00
7214;DHT22;3648;50.614;13.830;2022-09-16T09:15:36;16.40;1.00
7214;DHT22;3648;50.614;13.830;2022-09-16T09:18:28;16.40;1.00
7214;DHT22;3648;50.614;13.830;2022-09-16T09:21:09;16.40;1.00
7214;DHT22;3648;50.614;13.830;2022-09-16T09:23:53;16.40;1.00
7214;DHT22;3648;50.614;13.830;2022-09-16T09:26:28;16.20;1.00
7214;DHT22;3648;50.614;13.830;2022-09-16T09:29:19;16.20;1.00
7214;DHT22;3648;50.614;13.830;2022-09-16T09:31:56;16.20;1.00
7214;DHT22;3648;50.614;13.830;2022-09-16T09:34:44;16.30;1.00
7214;DHT22;3648;50.614;13.830;2022-09-16T09:37:28;16.20;1.00
7214;DHT22;3648;50.614;13.830;2022-09-16T09:40:02;16.40;1.00
7214;DHT22;3648;50.614;13.830;2022-09-16T09:42:36;16.40;1.00
7214;DHT22;3648;50.614;13.830;2022-09-16T09:45:15;16.50;1.00
7214;DHT22;3648;50.614;13.830;2022-09-16T09:47:48;16.60;1.00
7214;DHT22;3648;50.614;13.830;2022-09-16T09:50:20;16.60;1.00
7214;DHT22;3648;50.614;13.830;2022-09-16T09:52:54;16.50;1.00
7214;DHT22;3648;50.614;13.830;2022-09-16T09:55:24;16.50;1.00
7214;DHT22;3648;50.614;13.830;2022-09-16T09:58:05;16.60;1.00
7214;DHT22;3648;50.614;13.830;2022-09-16T10:00:35;16.70;1.00
7214;DHT22;3648;50.614;13.830;2022-09-16T10:03:06;16.80;1.00
7214;DHT22;3648;50.614;13.830;2022-09-16T10:05:36;16.90;1.00
7214;DHT22;3648;50.614;13.830;2022-09-16T10:08:12;16.90;1.00
7214;DHT22;3648;50.614;13.830;2022-09-16T10:10:47;16.90;1.00
7214;DHT22;3648;50.614;13.830;2022-09-16T10:13:15;16.80;1.00
7214;DHT22;3648;50.614;13.830;2022-09-16T10:15:43;16.70;1.00
7214;DHT22;3648;50.614;13.830;2022-09-16T10:18:20;16.60;1.00
7214;DHT22;3648;50.614;13.830;2022-09-16T10:20:57;16.50;1.00
7214;DHT22;3648;50.614;13.830;2022-09-16T10:23:25;16.40;1.00
7214;DHT22;3648;50.614;13.830;2022-09-16T10:26:04;16.40;1.00
7214;DHT22;3648;50.614;13.830;2022-09-16T10:28:31;16.40;1.00
7214;DHT22;3648;50.614;13.830;2022-09-16T10:30:59;16.40;1.00
7214;DHT22;3648;50.614;13.830;2022-09-16T10:33:30;16.30;1.00
7214;DHT22;3648;50.614;13.830;2022-09-16T10:35:59;16.30;1.00
7214;DHT22;3648;50.614;13.830;2022-09-16T10:38:34;16.20;1.00
7214;DHT22;3648;50.614;13.830;2022-09-16T10:41:06;16.20;1.00
7214;DHT22;3648;50.614;13.830;2022-09-16T10:43:36;16.20;1.00
7214;DHT22;3648;50.614;13.830;2022-09-16T10:46:04;16.30;1.00
7214;DHT22;3648;50.614;13.830;2022-09-16T10:48:34;16.40;1.00
7214;DHT22;3648;50.614;13.830;2022-09-16T10:51:04;16.60;1.00
7214;DHT22;3648;50.614;13.830;2022-09-16T10:53:34;16.70;1.00
7214;DHT22;3648;50.614;13.830;2022-09-16T10:56:03;16.80;1.00
7214;DHT22;3648;50.614;13.830;2022-09-16T10:58:31;16.90;1.00
7214;DHT22;3648;50.614;13.830;2022-09-16T11:01:12;17.00;1.00
7214;DHT22;3648;50.614;13.830;2022-09-16T11:03:58;17.00;1.00
7214;DHT22;3648;50.614;13.830;2022-09-16T11:06:43;16.90;1.00
7214;DHT22;3648;50.614;13.830;2022-09-16T11:09:17;16.70;1.00
7214;DHT22;3648;50.614;13.830;2022-09-16T11:12:11;16.70;1.00
7214;DHT22;3648;50.614;13.830;2022-09-16T11:14:45;16.60;1.00
7214;DHT22;3648;50.614;13.830;2022-09-16T11:17:27;16.60;1.00
7214;DHT22;3648;50.614;13.830;2022-09-16T11:20:24;16.50;1.00
7214;DHT22;3648;50.614;13.830;2022-09-16T11:23:02;16.50;1.00
7214;DHT22;3648;50.614;13.830;2022-09-16T11:25:40;16.60;1.00
7214;DHT22;3648;50.614;13.830;2022-09-16T11:28:35;16.70;1.00
7214;DHT22;3648;50.614;13.830;2022-09-16T11:31:12;16.80;1.00
7214;DHT22;3648;50.614;13.830;2022-09-16T11:33:46;16.90;1.00
7214;DHT22;3648;50.614;13.830;2022-09-16T11:36:36;16.90;1.00
7214;DHT22;3648;50.614;13.830;2022-09-16T11:39:18;16.80;1.00
7214;DHT22;3648;50.614;13.830;2022-09-16T11:41:54;16.70;1.00
7214;DHT22;3648;50.614;13.830;2022-09-16T11:44:34;16.60;1.00
7214;DHT22;3648;50.614;13.830;2022-09-16T11:47:15;16.50;1.00
7214;DHT22;3648;50.614;13.830;2022-09-16T11:49:54;16.50;1.00
7214;DHT22;3648;50.614;13.830;2022-09-16T11:52:34;16.50;1.00
7214;DHT22;3648;50.614;13.830;2022-09-16T11:55:23;16.60;1.00
7214;DHT22;3648;50.614;13.830;2022-09-16T11:57:55;16.60;1.00
7214;DHT22;3648;50.614;13.830;2022-09-16T12:00:24;16.60;1.00
7214;DHT22;3648;50.614;13.830;2022-09-16T12:02:56;16.70;1.00
7214;DHT22;3648;50.614;13.830;2022-09-16T12:05:28;16.80;1.00
7214;DHT22;3648;50.614;13.830;2022-09-16T12:08:02;16.90;1.00
7214;DHT22;3648;50.614;13.830;2022-09-16T12:10:35;17.00;1.00
7214;DHT22;3648;50.614;13.830;2022-09-16T12:13:10;17.10;1.00
7214;DHT22;3648;50.614;13.830;2022-09-16T12:15:43;17.20;1.00
7214;DHT22;3648;50.614;13.830;2022-09-16T12:18:14;17.20;1.00
7214;DHT22;3648;50.614;13.830;2022-09-16T12:20:45;17.10;1.00
7214;DHT22;3648;50.614;13.830;2022-09-16T12:23:17;16.90;1.00
7214;DHT22;3648;50.614;13.830;2022-09-16T12:25:58;16.70;1.00
7214;DHT22;3648;50.614;13.830;2022-09-16T12:28:30;16.60;1.00
7214;DHT22;3648;50.614;13.830;2022-09-16T12:31:07;16.50;1.00
7214;DHT22;3648;50.614;13.830;2022-09-16T12:33:42;16.40;1.00
7214;DHT22;3648;50.614;13.830;2022-09-16T12:36:13;16.30;1.00
7214;DHT22;3648;50.614;13.830;2022-09-16T12:38:42;16.20;1.00
7214;DHT22;3648;50.614;13.830;2022-09-16T12:41:22;16.20;1.00
7214;DHT22;3648;50.614;13.830;2022-09-16T12:44:15;16.30;1.00
7214;DHT22;3648;50.614;13.830;2022-09-16T12:47:03;16.40;1.00
7214;DHT22;3648;50.614;13.830;2022-09-16T12:50:11;16.50;1.00
7214;DHT22;3648;50.614;13.830;2022-09-16T12:53:05;16.60;1.00
7214;DHT22;3648;50.614;13.830;2022-09-16T12:55:51;16.70;1.00
7214;DHT22;3648;50.614;13.830;2022-09-16T12:58:49;16.90;1.00
7214;DHT22;3648;50.614;13.830;2022-09-16T13:01:21;17.00;1.00
7214;DHT22;3648;50.614;13.830;2022-09-16T13:03:54;16.90;1.00
7214;DHT22;3648;50.614;13.830;2022-09-16T13:06:31;16.80;1.00
7214;DHT22;3648;50.614;13.830;2022-09-16T13:09:13;16.70;1.00
7214;DHT22;3648;50.614;13.830;2022-09-16T13:11:52;16.60;1.00
7214;DHT22;3648;50.614;13.830;2022-09-16T13:14:21;16.50;1.00
7214;DHT22;3648;50.614;13.830;2022-09-16T13:16:54;16.50;1.00
7214;DHT22;3648;50.614;13.830;2022-09-16T13:19:31;16.50;1.00
7214;DHT22;3648;50.614;13.830;2022-09-16T13:22:10;16.30;1.00
7214;DHT22;3648;50.614;13.830;2022-09-16T13:24:41;16.10;1.00
7214;DHT22;3648;50.614;13.830;2022-09-16T13:27:27;16.00;1.00
7214;DHT22;3648;50.614;13.830;2022-09-16T13:30:11;15.90;1.00
7214;DHT22;3648;50.614;13.830;2022-09-16T13:32:41;15.70;1.00
7214;DHT22;3648;50.614;13.830;2022-09-16T13:35:22;15.60;1.00
7214;DHT22;3648;50.614;13.830;2022-09-16T13:37:52;15.50;1.00
7214;DHT22;3648;50.614;13.830;2022-09-16T13:40:22;15.40;1.00
7214;DHT22;3648;50.614;13.830;2022-09-16T13:43:03;15.40;1.00
7214;DHT22;3648;50.614;13.830;2022-09-16T13:45:39;15.40;1.00
7214;DHT22;3648;50.614;13.830;2022-09-16T13:48:11;15.30;1.00
7214;DHT22;3648;50.614;13.830;2022-09-16T13:50:49;15.30;1.00
7214;DHT22;3648;50.614;13.830;2022-09-16T13:53:27;15.30;1.00
7214;DHT22;3648;50.614;13.830;2022-09-16T13:56:00;15.40;1.00
7214;DHT22;3648;50.614;13.830;2022-09-16T13:58:36;15.40;1.00
7214;DHT22;3648;50.614;13.830;2022-09-16T14:01:09;15.50;1.00
7214;DHT22;3648;50.614;13.830;2022-09-16T14:03:52;15.30;1.00
7214;DHT22;3648;50.614;13.830;2022-09-16T14:06:55;15.40;1.00
7214;DHT22;3648;50.614;13.830;2022-09-16T14:09:37;15.30;1.00
7214;DHT22;3648;50.614;13.830;2022-09-16T14:12:12;15.30;1.00
7214;DHT22;3648;50.614;13.830;2022-09-16T14:14:45;15.30;1.00
7214;DHT22;3648;50.614;13.830;2022-09-16T14:17:19;15.30;1.00
7214;DHT22;3648;50.614;13.830;2022-09-16T14:19:49;15.30;1.00
7214;DHT22;3648;50.614;13.830;2022-09-16T14:22:19;15.30;1.00
7214;DHT22;3648;50.614;13.830;2022-09-16T14:24:52;15.30;1.00
7214;DHT22;3648;50.614;13.830;2022-09-16T14:27:27;15.20;1.00
7214;DHT22;3648;50.614;13.830;2022-09-16T14:29:58;15.20;1.00
7214;DHT22;3648;50.614;13.830;2022-09-16T14:32:27;15.10;1.00
7214;DHT22;3648;50.614;13.830;2022-09-16T14:34:57;15.10;1.00
7214;DHT22;3648;50.614;13.830;2022-09-16T14:37:26;15.10;1.00
7214;DHT22;3648;50.614;13.830;2022-09-16T14:40:02;15.10;1.00
7214;DHT22;3648;50.614;13.830;2022-09-16T14:42:31;15.10;1.00
7214;DHT22;3648;50.614;13.830;2022-09-16T14:45:00;15.00;1.00
7214;DHT22;3648;50.614;13.830;2022-09-16T14:47:29;15.10;1.00
7214;DHT22;3648;50.614;13.830;2022-09-16T14:50:02;15.00;1.00
7214;DHT22;3648;50.614;13.830;2022-09-16T14:52:33;15.10;1.00
7214;DHT22;3648;50.614;13.830;2022-09-16T14:55:00;15.10;1.00
7214;DHT22;3648;50.614;13.830;2022-09-16T14:57:28;15.10;1.00
7214;DHT22;3648;50.614;13.830;2022-09-16T15:00:03;15.10;1.00
7214;DHT22;3648;50.614;13.830;2022-09-16T15:02:36;15.10;1.00
7214;DHT22;3648;50.614;13.830;2022-09-16T15:05:21;15.00;1.00
7214;DHT22;3648;50.614;13.830;2022-09-16T15:07:50;15.00;1.00
7214;DHT22;3648;50.614;13.830;2022-09-16T15:10:22;15.00;1.00
7214;DHT22;3648;50.614;13.830;2022-09-16T15:12:55;14.90;1.00
7214;DHT22;3648;50.614;13.830;2022-09-16T15:15:27;14.80;1.00
7214;DHT22;3648;50.614;13.830;2022-09-16T15:17:58;14.80;1.00
7214;DHT22;3648;50.614;13.830;2022-09-16T15:20:29;14.80;1.00
7214;DHT22;3648;50.614;13.830;2022-09-16T15:22:59;14.60;1.00
7214;DHT22;3648;50.614;13.830;2022-09-16T15:25:29;14.60;1.00
7214;DHT22;3648;50.614;13.830;2022-09-16T15:28:04;14.60;1.00
7214;DHT22;3648;50.614;13.830;2022-09-16T15:30:34;14.60;1.00
7214;DHT22;3648;50.614;13.830;2022-09-16T15:33:23;14.60;1.00
7214;DHT22;3648;50.614;13.830;2022-09-16T15:35:51;14.60;1.00
7214;DHT22;3648;50.614;13.830;2022-09-16T15:38:20;14.60;1.00
7214;DHT22;3648;50.614;13.830;2022-09-16T15:40:48;14.50;1.00
7214;DHT22;3648;50.614;13.830;2022-09-16T15:43:27;14.50;1.00
7214;DHT22;3648;50.614;13.830;2022-09-16T15:46:01;14.50;1.00
7214;DHT22;3648;50.614;13.830;2022-09-16T15:48:31;14.60;1.00
7214;DHT22;3648;50.614;13.830;2022-09-16T15:51:03;14.60;1.00
7214;DHT22;3648;50.614;13.830;2022-09-16T15:53:43;14.70;1.00
7214;DHT22;3648;50.614;13.830;2022-09-16T15:56:22;14.80;1.00
7214;DHT22;3648;50.614;13.830;2022-09-16T15:58:53;14.80;1.00
7214;DHT22;3648;50.614;13.830;2022-09-16T16:01:41;14.80;1.00
7214;DHT22;3648;50.614;13.830;2022-09-16T16:04:12;14.90;1.00
7214;DHT22;3648;50.614;13.830;2022-09-16T16:06:46;14.90;1.00
7214;DHT22;3648;50.614;13.830;2022-09-16T16:09:32;14.90;1.00
7214;DHT22;3648;50.614;13.830;2022-09-16T16:12:01;14.90;1.00
7214;DHT22;3648;50.614;13.830;2022-09-16T16:14:31;14.90;1.00
7214;DHT22;3648;50.614;13.830;2022-09-16T16:17:02;14.90;1.00
7214;DHT22;3648;50.614;13.830;2022-09-16T16:19:30;14.80;1.00
7214;DHT22;3648;50.614;13.830;2022-09-16T16:21:58;14.80;1.00
7214;DHT22;3648;50.614;13.830;2022-09-16T16:24:26;14.80;1.00
7214;DHT22;3648;50.614;13.830;2022-09-16T16:26:55;14.80;1.00
7214;DHT22;3648;50.614;13.830;2022-09-16T16:29:23;14.80;1.00
7214;DHT22;3648;50.614;13.830;2022-09-16T16:32:15;14.70;1.00
7214;DHT22;3648;50.614;13.830;2022-09-16T16:34:44;14.70;1.00
7214;DHT22;3648;50.614;13.830;2022-09-16T16:37:12;14.70;1.00
7214;DHT22;3648;50.614;13.830;2022-09-16T16:39:42;14.60;1.00
7214;DHT22;3648;50.614;13.830;2022-09-16T16:42:10;14.60;1.00
7214;DHT22;3648;50.614;13.830;2022-09-16T16:44:38;14.50;1.00
7214;DHT22;3648;50.614;13.830;2022-09-16T16:47:05;14.50;1.00
7214;DHT22;3648;50.614;13.830;2022-09-16T16:49:34;14.40;1.00